Main page
METAR-TAF:

METAR-TAF

Airports :

London, England

London City Airport

latitude: 51-30N, longitude: 000-03E, elevation: 5 m

Current weather observation

The report was made 33 minutes ago, at 21:20 UTC
Wind 5 kt from the East
Temperature 12°C
Humidity 58%
Pressure 1017 hPa
Visibility 10 km or more

METAR: EGLC 282120Z AUTO 09005KT 9999 NCD 12/04 Q1017

Time: 22:53 (21:53 UTC)

Forecast

The report was made 4 hours and 48 minutes ago, at 17:05 UTC
Forecast valid from 28 at 18 UTC to 28 at 21 UTC
Wind 3 kt from variable directions
Visibility 10 km or more
Scattered clouds at a height of 4000 ft

TAF: EGLC 281705Z 2818/2821 VRB03KT 9999 SCT040

Weather observations and forecasts of more than 4000 airports (METAR and TAF reports).

The available stations are represented by yellow and red dots on the map.

Hover mouse over dot to see the name of the station.

Then click to see weather observations and forecasts.

To change the map : click on the green buttons with a black cross to zoom in, on the green button with a dash to zoom out, or on the green arrows for adjacent maps.


METAR-TAF: